Time;durP1;ratioP1;P1;durP2;ratioP2;P2;SDS_P1;SDS_P2;PMS_P1;PMS_P2;Temp;Humidity;BMP_temperature;BMP_pressure;BME280_temperature;BME280_humidity;BME280_pressure;Samples;Min_cycle;Max_cycle;Signal;HPM_P1;HPM_P2
2022/08/15 00:00:33;;;;;;;;;16.00;12.00;;;;;20.69;65.48;98710.16;6281213;20;2485681;-56
2022/08/15 00:03:04;;;;;;;;;17.00;15.50;;;;;20.81;65.25;98711.44;6314599;20;2483603;-52
2022/08/15 00:05:41;;;;;;;;;17.67;17.67;;;;;20.72;65.69;98708.94;6309864;20;2491941;-54
2022/08/15 00:08:11;;;;;;;;;16.00;14.00;;;;;20.32;67.18;98706.31;6313284;20;2811821;-57
2022/08/15 00:11:12;;;;;;;;;15.33;14.00;;;;;19.72;69.75;98707.00;6283465;20;2491972;-54
2022/08/15 00:13:58;;;;;;;;;16.67;15.00;;;;;19.99;68.17;98707.56;6313522;20;3541951;-55
2022/08/15 00:16:36;;;;;;;;;15.50;15.50;;;;;19.71;69.73;98711.59;6312718;20;2483624;-57
2022/08/15 00:19:18;;;;;;;;;17.00;16.50;;;;;19.47;69.94;98715.25;6281972;20;2837838;-56
2022/08/15 00:21:59;;;;;;;;;14.00;14.00;;;;;19.62;69.97;98717.25;6281474;20;2491899;-53
2022/08/15 00:24:34;;;;;;;;;14.00;13.00;;;;;19.02;72.09;98714.00;6286899;20;3520055;-57
2022/08/15 00:27:07;;;;;;;;;16.00;15.00;;;;;18.88;73.64;98717.41;6280845;20;2818041;-54
2022/08/15 00:29:39;;;;;;;;;21.00;18.00;;;;;18.74;74.08;98718.06;6285323;20;2830498;-58
2022/08/15 00:32:19;;;;;;;;;19.00;16.00;;;;;19.61;70.12;98720.97;6286059;20;2483643;-57
2022/08/15 00:35:36;;;;;;;;;13.00;13.00;;;;;18.89;72.29;98712.81;6285897;20;3518135;-54
2022/08/15 00:38:25;;;;;;;;;15.00;15.00;;;;;18.78;74.17;98714.88;6286324;20;2817019;-55
2022/08/15 00:44:20;;;;;;;;;16.50;15.00;;;;;19.22;72.17;98722.63;6286348;20;2491920;-58
2022/08/15 00:47:18;;;;;;;;;16.00;14.33;;;;;19.86;70.07;98714.44;6287350;20;3537761;-54
2022/08/15 00:49:49;;;;;;;;;16.33;13.67;;;;;19.89;69.25;98708.63;6283538;20;2815972;-57
2022/08/15 00:52:32;;;;;;;;;15.00;14.00;;;;;19.57;70.93;98708.75;6319096;20;2483632;-57
2022/08/15 00:55:17;;;;;;;;;21.00;19.00;;;;;19.33;71.91;98705.09;6283411;20;2833809;-56
2022/08/15 00:57:49;;;;;;;;;19.33;15.33;;;;;19.63;71.05;98708.03;6284348;20;3556528;-56
2022/08/15 01:00:40;;;;;;;;;16.33;14.00;;;;;19.40;71.64;98713.38;6284357;20;3545067;-58
2022/08/15 01:03:31;;;;;;;;;18.00;16.00;;;;;19.54;71.88;98720.84;6321620;20;3560667;-54
2022/08/15 01:06:04;;;;;;;;;20.00;16.50;;;;;19.29;72.42;98718.19;6316849;20;2832591;-56
2022/08/15 01:08:37;;;;;;;;;19.00;17.50;;;;;18.79;73.76;98715.72;6284832;20;2832555;-57
2022/08/15 01:11:24;;;;;;;;;18.00;17.00;;;;;18.46;75.30;98721.13;6281633;20;2489863;-57
2022/08/15 01:14:06;;;;;;;;;18.00;16.33;;;;;18.37;75.77;98713.97;6317712;20;3571327;-55
2022/08/15 01:16:55;;;;;;;;;15.00;14.00;;;;;18.11;76.70;98712.22;6280802;20;2500346;-56
2022/08/15 01:19:32;;;;;;;;;19.50;17.00;;;;;18.10;76.56;98710.53;6284473;20;2830467;-62
2022/08/15 01:22:24;;;;;;;;;13.50;13.00;;;;;18.87;74.16;98707.53;6285996;20;2780465;-62
2022/08/15 01:24:59;;;;;;;;;18.00;16.00;;;;;19.04;73.93;98709.22;6283861;20;3557538;-62
2022/08/15 01:28:03;;;;;;;;;20.00;17.00;;;;;18.81;74.49;98705.53;6284888;20;2836771;-62
2022/08/15 01:30:49;;;;;;;;;20.50;20.50;;;;;18.82;74.72;98704.50;6282770;20;2840941;-59
2022/08/15 01:33:40;;;;;;;;;19.00;17.00;;;;;18.63;75.53;98698.34;6284025;20;2826273;-59
2022/08/15 01:36:09;;;;;;;;;16.50;16.00;;;;;18.31;77.16;98703.78;6280361;20;2492017;-59
2022/08/15 01:39:46;;;;;;;;;17.00;17.00;;;;;18.53;76.21;98710.41;6283804;20;2835737;-56
2022/08/15 01:42:47;;;;;;;;;20.00;20.00;;;;;18.64;75.69;98702.78;6283612;20;2833581;-57
2022/08/15 01:45:23;;;;;;;;;20.00;16.00;;;;;18.69;75.76;98698.69;6286525;20;2824221;-56
2022/08/15 01:48:23;;;;;;;;;14.50;14.50;;;;;18.25;77.91;98704.47;6282129;20;2500290;-54
2022/08/15 01:51:06;;;;;;;;;18.50;16.00;;;;;18.21;78.71;98695.78;6282667;20;2830479;-63
2022/08/15 01:53:54;;;;;;;;;20.00;18.00;;;;;18.23;78.99;98706.50;6285225;20;2828413;-63
2022/08/15 01:56:38;;;;;;;;;17.00;17.00;;;;;18.03;79.40;98704.06;6281178;20;3570005;-62
2022/08/15 01:59:19;;;;;;;;;16.50;16.50;;;;;17.83;79.81;98710.81;6279253;20;2822273;-62
2022/08/15 02:01:57;;;;;;;;;18.50;18.00;;;;;18.11;79.43;98708.66;6286059;20;2842320;-63
2022/08/15 02:04:40;;;;;;;;;18.50;16.50;;;;;18.21;77.98;98702.06;6288657;20;2835700;-63
2022/08/15 02:07:25;;;;;;;;;16.50;16.00;;;;;17.71;79.66;98705.63;6283095;20;2833649;-62
2022/08/15 02:09:59;;;;;;;;;20.00;17.50;;;;;18.18;78.55;98702.41;6284507;20;2500273;-62
2022/08/15 02:12:49;;;;;;;;;19.00;17.00;;;;;18.11;78.97;98693.19;6284935;20;2837797;-62
2022/08/15 02:15:37;;;;;;;;;19.33;17.00;;;;;18.11;79.10;98690.50;6283415;20;3571301;-62
2022/08/15 02:18:11;;;;;;;;;17.00;14.00;;;;;18.04;79.24;98691.34;6283201;20;3534706;-62
2022/08/15 02:20:47;;;;;;;;;16.00;16.00;;;;;17.73;80.86;98695.47;6283206;20;2824283;-53
2022/08/15 02:23:19;;;;;;;;;20.50;18.00;;;;;17.24;80.53;98697.94;6284279;20;2839875;-57
2022/08/15 02:25:54;;;;;;;;;17.00;17.00;;;;;16.84;82.46;98695.84;6283013;20;2830549;-57
2022/08/15 02:28:24;;;;;;;;;16.00;13.00;;;;;16.80;82.58;98692.63;6286330;20;2491918;-54
2022/08/15 02:31:16;;;;;;;;;17.00;17.00;;;;;17.03;81.67;98686.63;6288107;20;3571189;-57
2022/08/15 02:34:20;;;;;;;;;18.50;18.50;;;;;17.47;80.56;98687.38;6280680;20;2836706;-54
2022/08/15 02:37:10;;;;;;;;;14.00;12.50;;;;;17.00;81.35;98681.53;6280948;20;2500268;-52
2022/08/15 02:39:43;;;;;;;;;18.00;16.00;;;;;16.96;82.26;98693.75;6283741;20;2496101;-54
2022/08/15 02:42:15;;;;;;;;;20.33;18.00;;;;;17.07;82.28;98690.75;6284749;20;3577388;-54
2022/08/15 02:44:45;;;;;;;;;20.33;18.00;;;;;17.15;81.44;98687.25;6285741;20;3567067;-53
2022/08/15 02:47:14;;;;;;;;;20.00;16.00;;;;;17.26;81.12;98685.09;6278591;20;2821099;-55
2022/08/15 02:49:52;;;;;;;;;23.00;20.00;;;;;17.00;81.61;98689.69;6284091;20;2848217;-56
2022/08/15 02:52:21;;;;;;;;;15.67;14.67;;;;;16.96;82.55;98693.75;6284094;20;3529441;-53
2022/08/15 02:54:50;;;;;;;;;18.00;16.33;;;;;16.95;82.60;98689.31;6313202;20;3565942;-56
2022/08/15 02:57:31;;;;;;;;;15.50;15.50;;;;;16.70;82.71;98694.53;6312476;20;2811852;-54
2022/08/15 03:00:22;;;;;;;;;20.00;20.00;;;;;17.22;80.16;98700.00;6283100;20;2840572;-53
2022/08/15 03:03:05;;;;;;;;;19.33;18.33;;;;;16.98;80.59;98698.00;6282743;20;3562717;-55
2022/08/15 03:05:42;;;;;;;;;20.00;16.67;;;;;16.85;81.59;98693.00;6316816;20;3559657;-56
2022/08/15 03:08:11;;;;;;;;;20.00;17.00;;;;;16.92;81.18;98703.19;6282806;20;2826487;-55
2022/08/15 03:10:43;;;;;;;;;20.00;18.00;;;;;16.63;82.02;98705.13;6283955;20;2483607;-57
2022/08/15 03:13:21;;;;;;;;;19.50;18.00;;;;;16.77;82.58;98711.00;6282999;20;2832612;-54
2022/08/15 03:15:56;;;;;;;;;18.50;17.00;;;;;17.27;80.34;98705.78;6279305;20;2492059;-53
2022/08/15 03:18:32;;;;;;;;;19.00;17.00;;;;;17.39;79.12;98708.22;6277468;20;2496022;-57
2022/08/15 03:21:07;;;;;;;;;21.00;18.00;;;;;16.81;81.25;98707.84;6278915;20;2496233;-54
2022/08/15 03:23:46;;;;;;;;;19.00;18.00;;;;;17.15;79.45;98709.78;6279110;20;2835815;-56
2022/08/15 03:26:19;;;;;;;;;19.50;15.50;;;;;17.08;79.72;98706.84;6280146;20;2496155;-56
2022/08/15 03:29:08;;;;;;;;;21.50;18.50;;;;;17.08;80.33;98706.84;6280293;20;2833604;-55
2022/08/15 03:31:47;;;;;;;;;18.00;17.00;;;;;16.75;81.82;98704.91;6283619;20;2826398;-53
2022/08/15 03:34:19;;;;;;;;;21.00;18.00;;;;;16.97;82.38;98711.69;6283200;20;2491933;-56
2022/08/15 03:36:57;;;;;;;;;19.00;16.00;;;;;17.41;82.11;98711.63;6277143;20;2822124;-53
2022/08/15 03:39:28;;;;;;;;;18.00;16.00;;;;;17.63;81.19;98708.31;6280452;20;2827361;-58
2022/08/15 03:41:59;;;;;;;;;18.00;18.00;;;;;17.78;80.81;98708.56;6284306;20;2825252;-58
2022/08/15 03:44:27;;;;;;;;;19.33;16.67;;;;;17.73;81.12;98711.75;6285513;20;2828387;-51
2022/08/15 03:47:02;;;;;;;;;22.00;19.00;;;;;17.83;80.78;98708.09;6311785;20;2844002;-57
2022/08/15 03:49:30;;;;;;;;;16.00;14.67;;;;;17.91;80.71;98710.84;6311735;20;3537796;-57
2022/08/15 03:52:20;;;;;;;;;25.00;19.00;;;;;17.62;81.64;98709.34;6278639;20;2854535;-56
2022/08/15 03:55:07;;;;;;;;;21.67;17.33;;;;;17.70;81.23;98706.66;6313272;20;3560667;-59
2022/08/15 03:57:46;;;;;;;;;17.00;15.50;;;;;17.88;80.18;98709.31;6310141;20;2827371;-61
2022/08/15 04:00:43;;;;;;;;;17.50;16.00;;;;;17.86;80.80;98713.19;6285885;20;2827451;-62
2022/08/15 04:03:28;;;;;;;;;17.50;17.50;;;;;17.78;81.11;98706.69;6289656;20;2839867;-62
2022/08/15 04:06:06;;;;;;;;;17.50;17.50;;;;;17.76;81.10;98707.84;6286174;20;2833618;-61
2022/08/15 04:08:45;;;;;;;;;20.50;16.00;;;;;17.60;82.23;98714.06;6288235;20;2826296;-58
2022/08/15 04:11:35;;;;;;;;;23.00;21.00;;;;;17.43;83.41;98712.28;6286076;20;2843032;-56
2022/08/15 04:14:07;;;;;;;;;21.50;17.50;;;;;17.27;84.00;98723.91;6286840;20;2835708;-56
2022/08/15 04:16:59;;;;;;;;;18.50;18.50;;;;;17.38;82.14;98726.38;6284807;20;2837735;-55
2022/08/15 04:19:42;;;;;;;;;19.00;16.50;;;;;17.57;81.55;98719.84;6278044;20;2833677;-56
2022/08/15 04:22:29;;;;;;;;;22.33;19.00;;;;;17.85;80.21;98722.34;6289005;20;2846192;-51
2022/08/15 04:25:14;;;;;;;;;20.67;18.67;;;;;17.36;81.78;98716.69;6318488;20;3563824;-55
2022/08/15 04:27:51;;;;;;;;;21.50;19.00;;;;;17.49;82.13;98720.66;6283581;20;2830479;-54
2022/08/15 04:30:27;;;;;;;;;22.33;21.00;;;;;17.50;81.47;98719.63;6288443;20;3562792;-55
2022/08/15 04:33:09;;;;;;;;;20.50;17.50;;;;;17.61;82.18;98721.19;6279288;20;2836078;-54
2022/08/15 04:36:12;;;;;;;;;26.33;20.67;;;;;17.77;81.49;98715.84;6288868;20;2851409;-57
2022/08/15 04:38:49;;;;;;;;;24.33;18.67;;;;;17.63;81.57;98713.75;6317652;20;3582523;-55
2022/08/15 04:41:20;;;;;;;;;22.00;19.33;;;;;17.63;82.29;98726.47;6283409;20;2837827;-54
2022/08/15 04:44:05;;;;;;;;;16.67;16.00;;;;;17.73;82.01;98719.91;6323579;20;3564806;-51
2022/08/15 04:46:33;;;;;;;;;18.00;17.00;;;;;18.48;79.91;98719.06;6285958;20;2484138;-57
2022/08/15 04:49:04;;;;;;;;;19.67;18.00;;;;;18.51;79.22;98718.75;6289360;20;2837795;-57
2022/08/15 04:51:38;;;;;;;;;21.33;21.33;;;;;18.31;79.94;98718.22;6321622;20;3571179;-56
2022/08/15 04:54:07;;;;;;;;;18.00;14.00;;;;;18.47;79.99;98717.38;6285495;20;2808576;-57
2022/08/15 04:56:36;;;;;;;;;20.50;17.50;;;;;19.56;76.14;98728.81;6283725;20;2837765;-57
2022/08/15 04:59:20;;;;;;;;;24.67;19.33;;;;;19.12;77.28;98734.75;6288601;20;3581608;-54
2022/08/15 05:02:10;;;;;;;;;25.00;21.00;;;;;20.11;74.09;98734.22;6287256;20;2856530;-56
2022/08/15 05:04:59;;;;;;;;;20.00;19.00;;;;;19.90;73.84;98726.66;6288878;20;2836786;-57
2022/08/15 05:07:29;;;;;;;;;23.00;19.00;;;;;19.70;75.53;98730.84;6286279;20;2714798;-55
2022/08/15 05:10:08;;;;;;;;;18.00;17.00;;;;;20.05;74.04;98729.50;6315832;20;2829417;-56
2022/08/15 05:12:39;;;;;;;;;16.50;15.50;;;;;20.24;73.85;98738.25;6288075;20;2819035;-59
2022/08/15 05:15:22;;;;;;;;;23.00;19.00;;;;;20.79;72.07;98734.47;6285513;20;2838883;-58
2022/08/15 05:17:58;;;;;;;;;15.00;15.00;;;;;20.74;72.49;98734.16;6286418;20;2810692;-52
2022/08/15 05:20:27;;;;;;;;;16.00;16.00;;;;;22.95;64.69;98745.97;6286149;20;2830534;-55
2022/08/15 05:23:08;;;;;;;;;18.50;17.00;;;;;23.67;61.88;98743.97;6284379;20;2834721;-54
2022/08/15 05:25:46;;;;;;;;;19.00;18.00;;;;;24.91;57.93;98741.09;6286031;20;3572765;-55
2022/08/15 05:28:18;;;;;;;;;22.00;19.00;;;;;23.05;63.19;98737.44;6289046;20;3564809;-55
2022/08/15 05:31:02;;;;;;;;;20.00;18.67;;;;;22.70;64.57;98741.97;6289401;20;3569070;-60
2022/08/15 05:33:45;;;;;;;;;19.00;19.00;;;;;23.54;62.03;98735.69;6285759;20;2839822;-55
2022/08/15 05:36:26;;;;;;;;;21.00;18.00;;;;;23.10;63.43;98731.38;6286380;20;3565979;-52
2022/08/15 05:39:04;;;;;;;;;15.50;15.50;;;;;22.51;64.97;98727.00;6284798;20;2821088;-55
2022/08/15 05:41:46;;;;;;;;;18.00;16.00;;;;;22.98;64.24;98733.81;6285101;20;2829497;-56
2022/08/15 05:44:46;;;;;;;;;19.67;16.67;;;;;23.30;62.69;98732.38;6297601;20;3561741;-57
2022/08/15 05:47:43;;;;;;;;;17.67;16.33;;;;;24.72;59.03;98742.78;6282126;20;2491974;-56
2022/08/15 05:50:57;;;;;;;;;18.00;17.00;;;;;24.38;59.72;98740.09;6317298;20;2829510;-58
2022/08/15 05:54:01;;;;;;;;;22.67;19.00;;;;;24.34;59.74;98734.19;6288986;20;3570020;-57
2022/08/15 05:57:30;;;;;;;;;19.67;16.67;;;;;23.98;61.60;98735.31;6288174;20;3572140;-58
2022/08/15 06:00:11;;;;;;;;;17.00;15.50;;;;;24.78;60.06;98737.47;6281994;20;2823204;-59
2022/08/15 06:03:03;;;;;;;;;17.67;17.00;;;;;24.57;60.14;98739.34;6285203;20;2834708;-59
2022/08/15 06:05:52;;;;;;;;;20.67;19.00;;;;;23.81;63.92;98734.81;6320140;20;3575317;-62
2022/08/15 06:08:32;;;;;;;;;20.00;18.33;;;;;23.22;66.91;98740.72;6287687;20;3567976;-62
2022/08/15 06:11:43;;;;;;;;;22.00;19.33;;;;;23.58;66.40;98742.47;6289537;20;3572157;-62
2022/08/15 06:14:30;;;;;;;;;19.00;19.00;;;;;24.06;65.51;98748.00;6286763;20;3572102;-62
2022/08/15 06:17:25;;;;;;;;;23.33;21.33;;;;;24.63;63.13;98749.50;6286852;20;3573138;-62
2022/08/15 06:20:03;;;;;;;;;20.33;18.00;;;;;23.98;65.81;98739.97;6283607;20;3581532;-62
2022/08/15 06:23:54;;;;;;;;;19.00;17.00;;;;;24.11;65.74;98745.50;6285782;20;3576390;-62
2022/08/15 06:27:09;;;;;;;;;21.00;20.00;;;;;24.06;66.39;98743.38;6288284;20;3581510;-62
2022/08/15 06:30:06;;;;;;;;;23.00;20.00;;;;;23.84;67.18;98750.88;6286526;20;3570040;-62
2022/08/15 06:33:35;;;;;;;;;21.33;18.33;;;;;23.84;67.51;98750.03;6283523;20;3568052;-62
2022/08/15 06:37:12;;;;;;;;;22.33;22.00;;;;;24.09;66.48;98747.59;6283972;20;3575271;-62
2022/08/15 06:40:03;;;;;;;;;24.67;18.00;;;;;23.97;66.68;98752.84;6282702;20;2854548;-62
2022/08/15 06:42:40;;;;;;;;;13.33;13.33;;;;;23.66;67.25;98750.53;6318126;20;2491942;-62
2022/08/15 06:45:30;;;;;;;;;18.33;15.67;;;;;24.04;66.83;98747.34;6318953;20;3556491;-62
2022/08/15 06:48:10;;;;;;;;;23.00;20.00;;;;;30.24;49.51;98770.00;6282082;20;2829550;-62
2022/08/15 06:51:05;;;;;;;;;22.33;21.67;;;;;34.76;38.94;98794.78;6286156;20;3556026;-62
2022/08/15 06:53:56;;;;;;;;;17.67;17.00;;;;;33.88;39.11;98790.66;6317419;20;3581484;-62
2022/08/15 06:56:51;;;;;;;;;19.33;18.33;;;;;34.20;38.45;98786.16;6284869;20;3563782;-63
2022/08/15 06:59:36;;;;;;;;;16.00;15.00;;;;;34.83;37.94;98797.28;6284823;20;2821167;-62
2022/08/15 07:02:39;;;;;;;;;16.00;16.00;;;;;36.35;34.82;98791.97;6286115;20;3564933;-62
2022/08/15 07:05:42;;;;;;;;;17.00;15.00;;;;;36.41;34.29;98791.66;6287164;20;3550337;-62
2022/08/15 07:08:54;;;;;;;;;20.00;20.00;;;;;36.16;34.97;98789.78;6284980;20;3575329;-62
2022/08/15 07:11:44;;;;;;;;;19.00;18.00;;;;;34.20;37.39;98789.75;6283229;20;3565961;-62
2022/08/15 07:15:02;;;;;;;;;20.00;17.00;;;;;34.05;38.53;98789.69;6315161;20;3572175;-62
2022/08/15 07:17:48;;;;;;;;;19.67;17.33;;;;;33.27;40.10;98790.19;6286302;20;3564863;-63
2022/08/15 07:20:26;;;;;;;;;19.67;19.00;;;;;30.82;45.67;98785.59;6283629;20;3570042;-62
2022/08/15 07:23:25;;;;;;;;;19.33;17.00;;;;;29.54;48.34;98780.00;6289075;20;3567956;-62
2022/08/15 07:26:07;;;;;;;;;20.33;15.33;;;;;28.44;52.02;98775.72;6285473;20;3564794;-63
2022/08/15 07:28:42;;;;;;;;;17.00;15.00;;;;;28.22;52.18;98774.47;6282059;20;2812795;-62
2022/08/15 07:31:26;;;;;;;;;17.00;13.33;;;;;26.74;56.40;98773.25;6285717;20;3545180;-63
2022/08/15 07:34:21;;;;;;;;;19.33;16.33;;;;;26.69;57.36;98768.41;6278886;20;2835905;-63
2022/08/15 07:37:06;;;;;;;;;17.33;17.33;;;;;27.62;54.47;98766.00;6316199;20;3577359;-63
2022/08/15 07:39:43;;;;;;;;;23.00;19.67;;;;;28.04;53.81;98768.97;6317076;20;3569027;-62
2022/08/15 07:42:21;;;;;;;;;18.57;18.57;;;;;27.98;54.07;98777.09;6317309;20;3578741;-62
2022/08/15 07:45:37;;;;;;;;;19.00;19.00;;;;;27.74;54.01;98773.28;6286365;20;3571103;-62
2022/08/15 07:48:27;;;;;;;;;20.33;18.33;;;;;28.28;52.61;98779.09;6288218;20;3572188;-62
2022/08/15 07:51:27;;;;;;;;;18.67;17.00;;;;;29.05;50.34;98779.31;6288249;20;3568038;-63
2022/08/15 07:54:26;;;;;;;;;17.50;16.50;;;;;28.33;51.36;98779.25;6285875;20;2825290;-63
2022/08/15 07:57:06;;;;;;;;;16.50;14.00;;;;;28.55;50.90;98785.13;6280443;20;2808585;-62
2022/08/15 07:59:39;;;;;;;;;16.00;16.00;;;;;29.15;49.97;98780.66;6280651;20;2819095;-62
2022/08/15 08:02:54;;;;;;;;;19.33;16.00;;;;;28.48;51.13;98778.00;6287205;20;3558556;-62
2022/08/15 08:05:40;;;;;;;;;16.33;15.00;;;;;28.34;51.13;98778.16;6285148;20;3554409;-62
2022/08/15 08:08:17;;;;;;;;;16.67;15.33;;;;;29.90;47.75;98783.63;6283513;20;3552441;-63
2022/08/15 08:11:35;;;;;;;;;17.33;15.00;;;;;29.87;47.47;98784.09;6282447;20;3556610;-62
2022/08/15 08:14:28;;;;;;;;;18.00;17.00;;;;;29.44;48.27;98788.06;6285955;20;3572123;-63
2022/08/15 08:17:52;;;;;;;;;18.50;18.50;;;;;30.02;46.81;98774.44;6286482;20;3517958;-64
2022/08/15 08:20:41;;;;;;;;;17.00;14.33;;;;;30.55;45.81;98778.94;6319852;20;3543995;-64
2022/08/15 08:23:41;;;;;;;;;14.00;14.00;;;;;30.08;46.78;98779.03;6312293;20;2783811;-56
2022/08/15 08:26:47;;;;;;;;;14.00;14.00;;;;;31.41;43.61;98778.88;6282126;20;2484396;-59
2022/08/15 08:29:46;;;;;;;;;16.33;12.33;;;;;30.88;43.87;98777.34;6316925;20;2479404;-58
2022/08/15 08:32:50;;;;;;;;;15.00;13.33;;;;;31.10;42.60;98772.78;6313913;20;3488778;-59
2022/08/15 08:35:48;;;;;;;;;13.00;13.00;;;;;31.06;41.07;98783.53;6312866;20;3524218;-58
2022/08/15 08:38:45;;;;;;;;;11.33;10.33;;;;;31.12;40.38;98780.84;6284570;20;2498177;-59
2022/08/15 08:42:10;;;;;;;;;13.33;12.00;;;;;30.98;40.32;98775.59;6316499;20;2483624;-58
2022/08/15 08:45:24;;;;;;;;;10.00;10.00;;;;;30.84;40.87;98777.03;6320421;20;3502336;-59
2022/08/15 08:48:25;;;;;;;;;11.00;11.00;;;;;30.88;41.07;98774.59;6315601;20;2483594;-57
2022/08/15 08:51:51;;;;;;;;;12.67;11.00;;;;;29.97;41.94;98777.97;6319688;20;3517952;-57
2022/08/15 08:54:45;;;;;;;;;11.33;11.33;;;;;30.26;41.69;98778.91;6287568;20;2484187;-57
2022/08/15 08:57:42;;;;;;;;;10.67;10.33;;;;;30.77;41.08;98771.59;6320995;20;3504358;-57
2022/08/15 09:00:29;;;;;;;;;12.33;11.00;;;;;30.68;40.04;98775.88;6317136;20;3512759;-52
2022/08/15 09:03:26;;;;;;;;;11.67;11.67;;;;;30.57;41.27;98768.41;6290484;20;2799201;-56
2022/08/15 09:05:59;;;;;;;;;15.00;12.00;;;;;31.75;39.62;98778.84;6318894;20;3526646;-52
2022/08/15 09:08:51;;;;;;;;;11.67;10.67;;;;;31.45;39.63;98769.78;6317376;20;3517940;-57
2022/08/15 09:11:32;;;;;;;;;11.67;11.67;;;;;31.68;39.84;98777.09;6287630;20;2487820;-59
2022/08/15 09:14:24;;;;;;;;;14.33;13.00;;;;;32.20;38.77;98775.88;6318783;20;2483667;-58
2022/08/15 09:17:13;;;;;;;;;12.00;12.00;;;;;31.60;39.41;98771.13;6321751;20;3514924;-58
2022/08/15 09:20:15;;;;;;;;;15.33;12.67;;;;;31.19;39.34;98770.44;6323887;20;3524255;-58
2022/08/15 09:22:49;;;;;;;;;12.33;12.00;;;;;32.53;38.48;98769.38;6317582;20;2483603;-56
2022/08/15 09:25:24;;;;;;;;;11.50;11.50;;;;;32.11;38.21;98769.94;6314986;20;2785698;-58
2022/08/15 09:28:39;;;;;;;;;11.00;11.00;;;;;31.91;38.70;98758.53;6283739;20;3507603;-58
2022/08/15 09:31:19;;;;;;;;;12.67;12.00;;;;;32.98;37.36;98762.63;6288699;20;3524187;-57
2022/08/15 09:34:38;;;;;;;;;14.50;13.00;;;;;32.34;38.65;98751.34;6315276;20;2795086;-53
2022/08/15 09:38:26;;;;;;;;;12.33;11.67;;;;;32.43;37.85;98749.78;6282657;20;3508995;-55
2022/08/15 09:41:30;;;;;;;;;15.00;13.50;;;;;32.18;38.36;98755.00;6314477;20;2799304;-57
2022/08/15 09:44:23;;;;;;;;;12.33;12.33;;;;;31.11;40.11;98757.81;6289673;20;2483722;-59
2022/08/15 09:48:00;;;;;;;;;13.00;12.00;;;;;31.71;38.98;98746.03;6314556;20;2806521;-58
2022/08/15 09:51:00;;;;;;;;;13.33;11.67;;;;;30.95;40.82;98740.06;6289697;20;3508776;-59
2022/08/15 09:54:00;;;;;;;;;12.00;12.00;;;;;30.56;41.53;98739.88;6317894;20;3512753;-59
2022/08/15 09:56:37;;;;;;;;;12.50;12.50;;;;;30.60;41.49;98734.69;6282780;20;2793001;-57
2022/08/15 09:59:25;;;;;;;;;14.00;14.00;;;;;30.19;41.59;98729.16;6286711;20;2798175;-54
2022/08/15 10:02:10;;;;;;;;;15.00;13.33;;;;;30.13;41.99;98726.53;6285935;20;2487762;-57
2022/08/15 10:05:01;;;;;;;;;13.67;12.00;;;;;30.14;41.52;98720.72;6318114;20;3523200;-55
2022/08/15 10:08:00;;;;;;;;;13.33;13.33;;;;;30.53;41.10;98714.59;6316941;20;3531525;-53
2022/08/15 10:10:37;;;;;;;;;14.67;12.33;;;;;31.60;39.05;98716.47;6286276;20;3505454;-57
2022/08/15 10:13:26;;;;;;;;;15.00;13.50;;;;;32.54;36.88;98726.59;6285085;20;2784648;-57
2022/08/15 10:15:58;;;;;;;;;14.00;14.00;;;;;32.40;35.82;98724.47;6284400;20;3521060;-53
2022/08/15 10:18:27;;;;;;;;;15.33;12.67;;;;;32.77;34.82;98731.00;6323243;20;3521269;-57
2022/08/15 10:21:21;;;;;;;;;12.00;12.00;;;;;32.52;35.29;98734.38;6320012;20;2485639;-56
2022/08/15 10:23:53;;;;;;;;;11.33;9.00;;;;;32.77;34.37;98725.44;6314185;20;3494020;-57
2022/08/15 10:26:30;;;;;;;;;11.67;11.67;;;;;33.45;32.59;98716.59;6313769;20;3509590;-57
2022/08/15 10:29:16;;;;;;;;;9.00;9.00;;;;;32.92;33.46;98710.84;6312595;20;3476310;-61
2022/08/15 10:32:00;;;;;;;;;12.00;12.00;;;;;32.97;33.11;98710.06;6317113;20;2483581;-56
2022/08/15 10:35:19;;;;;;;;;8.67;8.67;;;;;33.96;32.66;98711.34;6313946;20;3478477;-59
2022/08/15 10:38:01;;;;;;;;;12.00;12.00;;;;;33.40;33.12;98709.03;6303730;20;3510775;-61
2022/08/15 10:40:54;;;;;;;;;12.67;10.33;;;;;33.50;32.01;98711.06;6287156;20;2483621;-60
2022/08/15 10:43:40;;;;;;;;;10.33;10.33;;;;;33.66;32.69;98712.03;6314492;20;2483606;-60
2022/08/15 10:46:40;;;;;;;;;10.67;10.67;;;;;33.50;31.41;98710.22;6317509;20;2483639;-61
2022/08/15 10:50:05;;;;;;;;;13.00;11.33;;;;;34.05;30.68;98708.88;6318225;20;2483724;-60
2022/08/15 10:53:04;;;;;;;;;10.00;10.00;;;;;33.56;31.74;98707.22;6317181;20;3517925;-61
2022/08/15 10:55:39;;;;;;;;;12.67;11.00;;;;;34.05;31.46;98700.53;6323820;20;2784853;-60
2022/08/15 10:58:32;;;;;;;;;7.00;7.00;;;;;33.06;32.41;98691.81;6315165;20;2740025;-61
2022/08/15 11:01:24;;;;;;;;;13.00;12.67;;;;;33.47;32.95;98705.16;6316888;20;2485690;-60
2022/08/15 11:04:02;;;;;;;;;14.00;11.33;;;;;32.86;33.78;98692.44;6311450;20;3509643;-60
2022/08/15 11:06:51;;;;;;;;;13.50;12.00;;;;;32.64;34.83;98695.28;6279600;20;2778521;-60
2022/08/15 11:09:24;;;;;;;;;11.00;11.00;;;;;32.93;33.92;98686.66;6312020;20;3520041;-60
2022/08/15 11:12:05;;;;;;;;;12.67;12.67;;;;;32.64;34.50;98688.88;6286112;20;3513805;-60
2022/08/15 11:14:43;;;;;;;;;11.67;10.00;;;;;32.26;34.88;98687.91;6314530;20;2483648;-60
2022/08/15 11:17:19;;;;;;;;;13.00;13.00;;;;;31.98;34.57;98683.41;6308758;20;2787902;-56
2022/08/15 11:19:57;;;;;;;;;12.33;12.00;;;;;32.21;34.84;98687.84;6278703;20;3532892;-60
2022/08/15 11:22:52;;;;;;;;;13.00;13.00;;;;;32.20;35.10;98689.78;6282870;20;2483601;-60
2022/08/15 11:25:32;;;;;;;;;9.33;9.33;;;;;31.83;35.41;98687.63;6311713;20;3488911;-60
2022/08/15 11:28:17;;;;;;;;;12.00;12.00;;;;;31.84;36.40;98680.97;6314503;20;3526312;-60
2022/08/15 11:31:19;;;;;;;;;10.00;10.00;;;;;31.71;36.21;98673.03;6312294;20;3517964;-60
2022/08/15 11:33:54;;;;;;;;;16.67;15.67;;;;;31.52;37.16;98675.28;6283944;20;3547192;-60
2022/08/15 11:36:29;;;;;;;;;12.33;12.33;;;;;31.35;37.04;98677.19;6312149;20;3514842;-61
2022/08/15 11:39:11;;;;;;;;;14.00;13.00;;;;;31.54;36.80;98678.63;6280937;20;2483600;-60
2022/08/15 11:41:58;;;;;;;;;5.67;5.67;;;;;32.75;34.97;98679.53;6310763;20;2752330;-60
2022/08/15 11:44:57;;;;;;;;;11.33;11.33;;;;;33.13;33.74;98677.69;6314388;20;3523296;-60
2022/08/15 11:47:31;;;;;;;;;11.00;9.00;;;;;32.85;34.21;98671.28;6311727;20;3497095;-62
2022/08/15 11:50:08;;;;;;;;;11.33;11.33;;;;;32.05;35.31;98671.00;6311080;20;3509018;-61
2022/08/15 11:52:54;;;;;;;;;11.00;11.00;;;;;32.21;34.67;98665.63;6310833;20;3498159;-62
2022/08/15 11:55:27;;;;;;;;;13.67;10.33;;;;;32.70;33.96;98673.94;6312083;20;3517923;-57
2022/08/15 11:58:13;;;;;;;;;11.67;11.67;;;;;31.98;35.19;98670.34;6311321;20;2483618;-56
2022/08/15 12:00:51;;;;;;;;;11.67;10.67;;;;;30.81;38.87;98675.81;6316247;20;3512762;-57
2022/08/15 12:03:40;;;;;;;;;12.00;12.00;;;;;30.90;40.83;98665.13;6311314;20;3506465;-57
2022/08/15 12:06:40;;;;;;;;;13.00;13.00;;;;;30.77;40.15;98660.72;6312470;20;2483738;-55
2022/08/15 12:09:28;;;;;;;;;12.00;11.00;;;;;31.39;38.36;98657.06;6314490;20;3522187;-54
2022/08/15 12:12:42;;;;;;;;;15.67;10.00;;;;;30.95;37.66;98647.75;6313138;20;2483921;-57
2022/08/15 12:15:36;;;;;;;;;10.67;10.33;;;;;31.40;37.62;98644.03;6310787;20;3512729;-54
2022/08/15 12:18:20;;;;;;;;;12.00;12.00;;;;;31.69;37.15;98641.91;6311475;20;2797140;-54
2022/08/15 12:21:12;;;;;;;;;9.67;9.67;;;;;31.13;37.43;98644.72;6287609;20;3497124;-54
2022/08/15 12:23:49;;;;;;;;;12.00;12.00;;;;;31.47;37.13;98648.28;6318839;20;3512742;-55
2022/08/15 12:26:28;;;;;;;;;13.00;11.67;;;;;31.76;36.64;98652.84;6317843;20;3510729;-53
2022/08/15 12:29:17;;;;;;;;;12.00;12.00;;;;;31.48;36.44;98646.34;6317624;20;3513823;-54
2022/08/15 12:31:50;;;;;;;;;12.33;12.33;;;;;31.75;36.90;98651.16;6285475;20;3517006;-55
2022/08/15 12:34:31;;;;;;;;;13.67;11.67;;;;;31.71;36.30;98646.13;6289307;20;2799744;-55